sensor_id;sensor_type;location;lat;lon;timestamp;P1;durP1;ratioP1;P2;durP2;ratioP2
18973;SDS011;9621;48.690;9.466;2023-02-24T00:00:02;15.25;;;8.77;;
18973;SDS011;9621;48.690;9.466;2023-02-24T00:02:44;12.80;;;8.40;;
18973;SDS011;9621;48.690;9.466;2023-02-24T00:05:11;17.38;;;8.93;;
18973;SDS011;9621;48.690;9.466;2023-02-24T00:07:38;16.05;;;8.88;;
18973;SDS011;9621;48.690;9.466;2023-02-24T00:10:07;16.85;;;9.65;;
18973;SDS011;9621;48.690;9.466;2023-02-24T00:12:36;15.38;;;8.80;;
18973;SDS011;9621;48.690;9.466;2023-02-24T00:15:03;18.77;;;9.40;;
18973;SDS011;9621;48.690;9.466;2023-02-24T00:17:31;15.95;;;8.82;;
18973;SDS011;9621;48.690;9.466;2023-02-24T00:20:00;19.50;;;10.93;;
18973;SDS011;9621;48.690;9.466;2023-02-24T00:22:31;17.38;;;10.95;;
18973;SDS011;9621;48.690;9.466;2023-02-24T00:24:57;17.98;;;10.27;;
18973;SDS011;9621;48.690;9.466;2023-02-24T00:27:28;15.82;;;10.57;;
18973;SDS011;9621;48.690;9.466;2023-02-24T00:29:56;19.40;;;12.02;;
18973;SDS011;9621;48.690;9.466;2023-02-24T00:32:23;21.00;;;11.48;;
18973;SDS011;9621;48.690;9.466;2023-02-24T00:34:50;18.65;;;11.88;;
18973;SDS011;9621;48.690;9.466;2023-02-24T00:37:17;18.75;;;10.50;;
18973;SDS011;9621;48.690;9.466;2023-02-24T00:39:48;16.33;;;10.60;;
18973;SDS011;9621;48.690;9.466;2023-02-24T00:42:15;16.95;;;9.60;;
18973;SDS011;9621;48.690;9.466;2023-02-24T00:44:44;14.38;;;9.93;;
18973;SDS011;9621;48.690;9.466;2023-02-24T00:47:12;14.07;;;8.30;;
18973;SDS011;9621;48.690;9.466;2023-02-24T00:49:41;16.25;;;8.80;;
18973;SDS011;9621;48.690;9.466;2023-02-24T00:52:08;16.10;;;9.98;;
18973;SDS011;9621;48.690;9.466;2023-02-24T00:54:37;19.30;;;10.80;;
18973;SDS011;9621;48.690;9.466;2023-02-24T00:57:05;15.50;;;9.80;;
18973;SDS011;9621;48.690;9.466;2023-02-24T00:59:33;15.05;;;10.20;;
18973;SDS011;9621;48.690;9.466;2023-02-24T01:02:02;17.27;;;10.10;;
18973;SDS011;9621;48.690;9.466;2023-02-24T01:04:31;15.63;;;9.63;;
18973;SDS011;9621;48.690;9.466;2023-02-24T01:06:58;14.90;;;9.45;;
18973;SDS011;9621;48.690;9.466;2023-02-24T01:09:26;17.52;;;10.63;;
18973;SDS011;9621;48.690;9.466;2023-02-24T01:11:54;18.02;;;10.63;;
18973;SDS011;9621;48.690;9.466;2023-02-24T01:14:42;19.67;;;10.65;;
18973;SDS011;9621;48.690;9.466;2023-02-24T01:17:12;16.40;;;11.15;;
18973;SDS011;9621;48.690;9.466;2023-02-24T01:19:39;21.98;;;12.82;;
18973;SDS011;9621;48.690;9.466;2023-02-24T01:22:10;26.23;;;15.57;;
18973;SDS011;9621;48.690;9.466;2023-02-24T01:24:40;26.83;;;14.27;;
18973;SDS011;9621;48.690;9.466;2023-02-24T01:27:09;23.95;;;12.23;;
18973;SDS011;9621;48.690;9.466;2023-02-24T01:29:37;19.90;;;12.10;;
18973;SDS011;9621;48.690;9.466;2023-02-24T01:32:04;21.88;;;12.93;;
18973;SDS011;9621;48.690;9.466;2023-02-24T01:34:32;23.77;;;12.90;;
18973;SDS011;9621;48.690;9.466;2023-02-24T01:37:00;18.08;;;11.73;;
18973;SDS011;9621;48.690;9.466;2023-02-24T01:39:27;23.15;;;12.82;;
18973;SDS011;9621;48.690;9.466;2023-02-24T01:41:54;23.23;;;13.30;;
18973;SDS011;9621;48.690;9.466;2023-02-24T01:47:29;24.38;;;13.65;;
18973;SDS011;9621;48.690;9.466;2023-02-24T01:49:58;24.30;;;13.13;;
18973;SDS011;9621;48.690;9.466;2023-02-24T01:52:28;22.88;;;13.60;;
18973;SDS011;9621;48.690;9.466;2023-02-24T01:54:59;28.45;;;13.93;;
18973;SDS011;9621;48.690;9.466;2023-02-24T01:57:31;25.13;;;13.63;;
18973;SDS011;9621;48.690;9.466;2023-02-24T02:00:00;22.42;;;13.30;;
18973;SDS011;9621;48.690;9.466;2023-02-24T02:02:54;24.25;;;12.98;;
18973;SDS011;9621;48.690;9.466;2023-02-24T02:05:29;22.83;;;13.00;;
18973;SDS011;9621;48.690;9.466;2023-02-24T02:07:56;22.27;;;13.70;;
18973;SDS011;9621;48.690;9.466;2023-02-24T02:10:24;20.15;;;12.93;;
18973;SDS011;9621;48.690;9.466;2023-02-24T02:12:53;22.73;;;12.82;;
18973;SDS011;9621;48.690;9.466;2023-02-24T02:15:21;28.05;;;13.50;;
18973;SDS011;9621;48.690;9.466;2023-02-24T02:17:50;25.35;;;13.40;;
18973;SDS011;9621;48.690;9.466;2023-02-24T02:26:49;23.58;;;13.05;;
18973;SDS011;9621;48.690;9.466;2023-02-24T02:29:34;24.02;;;13.75;;
18973;SDS011;9621;48.690;9.466;2023-02-24T02:32:36;26.45;;;14.23;;
18973;SDS011;9621;48.690;9.466;2023-02-24T02:35:28;21.33;;;12.82;;
18973;SDS011;9621;48.690;9.466;2023-02-24T02:38:03;22.58;;;13.65;;
18973;SDS011;9621;48.690;9.466;2023-02-24T02:40:39;21.05;;;14.35;;
18973;SDS011;9621;48.690;9.466;2023-02-24T02:43:11;27.73;;;14.50;;
18973;SDS011;9621;48.690;9.466;2023-02-24T02:45:44;26.05;;;13.82;;
18973;SDS011;9621;48.690;9.466;2023-02-24T02:48:16;25.27;;;13.77;;
18973;SDS011;9621;48.690;9.466;2023-02-24T02:50:47;25.92;;;14.32;;
18973;SDS011;9621;48.690;9.466;2023-02-24T02:53:21;24.67;;;13.93;;
18973;SDS011;9621;48.690;9.466;2023-02-24T02:55:53;29.13;;;13.85;;
18973;SDS011;9621;48.690;9.466;2023-02-24T02:58:25;25.45;;;13.95;;
18973;SDS011;9621;48.690;9.466;2023-02-24T03:00:55;25.80;;;13.75;;
18973;SDS011;9621;48.690;9.466;2023-02-24T03:03:27;25.88;;;14.07;;
18973;SDS011;9621;48.690;9.466;2023-02-24T03:05:58;21.75;;;13.77;;
18973;SDS011;9621;48.690;9.466;2023-02-24T03:08:29;23.35;;;14.45;;
18973;SDS011;9621;48.690;9.466;2023-02-24T03:11:02;26.08;;;14.32;;
18973;SDS011;9621;48.690;9.466;2023-02-24T03:13:34;20.88;;;13.52;;
18973;SDS011;9621;48.690;9.466;2023-02-24T03:16:05;25.17;;;13.93;;
18973;SDS011;9621;48.690;9.466;2023-02-24T03:18:35;22.15;;;13.70;;
18973;SDS011;9621;48.690;9.466;2023-02-24T03:21:07;21.70;;;13.88;;
18973;SDS011;9621;48.690;9.466;2023-02-24T03:23:39;26.15;;;14.63;;
18973;SDS011;9621;48.690;9.466;2023-02-24T03:26:12;26.85;;;15.43;;
18973;SDS011;9621;48.690;9.466;2023-02-24T03:28:47;28.38;;;14.32;;
18973;SDS011;9621;48.690;9.466;2023-02-24T03:31:24;26.67;;;14.73;;
18973;SDS011;9621;48.690;9.466;2023-02-24T03:33:56;22.83;;;14.32;;
18973;SDS011;9621;48.690;9.466;2023-02-24T03:36:29;23.55;;;14.18;;
18973;SDS011;9621;48.690;9.466;2023-02-24T03:38:57;24.67;;;14.55;;
18973;SDS011;9621;48.690;9.466;2023-02-24T03:41:26;28.10;;;15.25;;
18973;SDS011;9621;48.690;9.466;2023-02-24T03:43:59;31.08;;;16.08;;
18973;SDS011;9621;48.690;9.466;2023-02-24T03:46:28;24.05;;;14.25;;
18973;SDS011;9621;48.690;9.466;2023-02-24T03:48:57;26.38;;;14.98;;
18973;SDS011;9621;48.690;9.466;2023-02-24T03:51:29;29.30;;;14.95;;
18973;SDS011;9621;48.690;9.466;2023-02-24T03:54:02;25.13;;;15.00;;
18973;SDS011;9621;48.690;9.466;2023-02-24T03:56:43;28.42;;;15.50;;
18973;SDS011;9621;48.690;9.466;2023-02-24T03:59:22;29.55;;;15.63;;
18973;SDS011;9621;48.690;9.466;2023-02-24T04:01:59;27.00;;;15.10;;
18973;SDS011;9621;48.690;9.466;2023-02-24T04:04:31;27.50;;;14.55;;
18973;SDS011;9621;48.690;9.466;2023-02-24T04:07:07;21.02;;;14.20;;
18973;SDS011;9621;48.690;9.466;2023-02-24T04:09:39;24.70;;;13.57;;
18973;SDS011;9621;48.690;9.466;2023-02-24T04:12:15;26.42;;;14.52;;
18973;SDS011;9621;48.690;9.466;2023-02-24T04:14:48;27.40;;;14.38;;
18973;SDS011;9621;48.690;9.466;2023-02-24T04:17:18;29.48;;;15.65;;
18973;SDS011;9621;48.690;9.466;2023-02-24T04:19:48;29.48;;;15.73;;
18973;SDS011;9621;48.690;9.466;2023-02-24T04:22:21;28.02;;;15.43;;
18973;SDS011;9621;48.690;9.466;2023-02-24T04:24:54;25.67;;;14.65;;
18973;SDS011;9621;48.690;9.466;2023-02-24T04:27:23;22.45;;;13.88;;
18973;SDS011;9621;48.690;9.466;2023-02-24T04:29:53;26.00;;;14.15;;
18973;SDS011;9621;48.690;9.466;2023-02-24T04:32:25;24.10;;;14.18;;
18973;SDS011;9621;48.690;9.466;2023-02-24T04:34:59;24.73;;;14.70;;
18973;SDS011;9621;48.690;9.466;2023-02-24T04:37:29;33.30;;;16.13;;
18973;SDS011;9621;48.690;9.466;2023-02-24T04:39:58;31.67;;;16.88;;
18973;SDS011;9621;48.690;9.466;2023-02-24T04:42:25;33.03;;;15.77;;
18973;SDS011;9621;48.690;9.466;2023-02-24T04:44:52;29.60;;;16.98;;
18973;SDS011;9621;48.690;9.466;2023-02-24T04:47:22;34.22;;;16.25;;
18973;SDS011;9621;48.690;9.466;2023-02-24T04:49:52;32.45;;;16.63;;
18973;SDS011;9621;48.690;9.466;2023-02-24T04:52:20;30.05;;;16.98;;
18973;SDS011;9621;48.690;9.466;2023-02-24T04:54:48;31.05;;;16.58;;
18973;SDS011;9621;48.690;9.466;2023-02-24T04:57:15;33.53;;;17.42;;
18973;SDS011;9621;48.690;9.466;2023-02-24T04:59:42;33.08;;;17.20;;
18973;SDS011;9621;48.690;9.466;2023-02-24T05:02:10;31.88;;;16.20;;
18973;SDS011;9621;48.690;9.466;2023-02-24T05:04:40;34.45;;;17.75;;
18973;SDS011;9621;48.690;9.466;2023-02-24T05:07:07;30.80;;;16.45;;
18973;SDS011;9621;48.690;9.466;2023-02-24T05:09:36;32.17;;;16.67;;
18973;SDS011;9621;48.690;9.466;2023-02-24T05:12:06;26.73;;;15.32;;
18973;SDS011;9621;48.690;9.466;2023-02-24T05:14:34;28.60;;;15.43;;
18973;SDS011;9621;48.690;9.466;2023-02-24T05:17:03;25.67;;;14.57;;
18973;SDS011;9621;48.690;9.466;2023-02-24T05:19:30;27.20;;;15.38;;
18973;SDS011;9621;48.690;9.466;2023-02-24T05:22:14;27.92;;;14.32;;
18973;SDS011;9621;48.690;9.466;2023-02-24T05:24:41;28.48;;;14.85;;
18973;SDS011;9621;48.690;9.466;2023-02-24T05:27:11;24.85;;;14.10;;
18973;SDS011;9621;48.690;9.466;2023-02-24T05:29:41;22.33;;;13.77;;
18973;SDS011;9621;48.690;9.466;2023-02-24T05:32:09;28.73;;;14.25;;
18973;SDS011;9621;48.690;9.466;2023-02-24T05:34:36;24.17;;;14.55;;
18973;SDS011;9621;48.690;9.466;2023-02-24T05:37:04;25.88;;;13.73;;
18973;SDS011;9621;48.690;9.466;2023-02-24T05:39:34;28.45;;;13.65;;
18973;SDS011;9621;48.690;9.466;2023-02-24T05:42:02;27.50;;;14.60;;
18973;SDS011;9621;48.690;9.466;2023-02-24T05:44:33;24.50;;;14.23;;
18973;SDS011;9621;48.690;9.466;2023-02-24T05:47:00;28.50;;;14.38;;
18973;SDS011;9621;48.690;9.466;2023-02-24T05:49:30;23.73;;;13.88;;
18973;SDS011;9621;48.690;9.466;2023-02-24T05:51:59;26.40;;;13.57;;
18973;SDS011;9621;48.690;9.466;2023-02-24T05:54:32;30.10;;;13.88;;
18973;SDS011;9621;48.690;9.466;2023-02-24T05:57:01;26.02;;;14.55;;
18973;SDS011;9621;48.690;9.466;2023-02-24T05:59:29;29.15;;;14.73;;
18973;SDS011;9621;48.690;9.466;2023-02-24T06:01:59;25.73;;;13.75;;
18973;SDS011;9621;48.690;9.466;2023-02-24T06:04:31;24.83;;;14.15;;
18973;SDS011;9621;48.690;9.466;2023-02-24T06:07:16;27.40;;;14.70;;
18973;SDS011;9621;48.690;9.466;2023-02-24T06:09:44;28.30;;;14.27;;
18973;SDS011;9621;48.690;9.466;2023-02-24T06:12:14;30.95;;;13.57;;
18973;SDS011;9621;48.690;9.466;2023-02-24T06:14:41;27.48;;;14.48;;
18973;SDS011;9621;48.690;9.466;2023-02-24T06:17:11;22.80;;;14.07;;
18973;SDS011;9621;48.690;9.466;2023-02-24T06:19:40;25.73;;;14.57;;
18973;SDS011;9621;48.690;9.466;2023-02-24T06:22:10;27.90;;;15.48;;
18973;SDS011;9621;48.690;9.466;2023-02-24T06:24:39;31.83;;;15.90;;
18973;SDS011;9621;48.690;9.466;2023-02-24T06:27:08;26.33;;;15.27;;
18973;SDS011;9621;48.690;9.466;2023-02-24T06:29:41;31.35;;;14.88;;
18973;SDS011;9621;48.690;9.466;2023-02-24T06:32:10;30.30;;;16.38;;
18973;SDS011;9621;48.690;9.466;2023-02-24T06:34:38;28.67;;;14.85;;
18973;SDS011;9621;48.690;9.466;2023-02-24T06:37:06;29.15;;;15.38;;
18973;SDS011;9621;48.690;9.466;2023-02-24T06:39:36;31.40;;;16.00;;
18973;SDS011;9621;48.690;9.466;2023-02-24T06:42:03;31.40;;;16.42;;
18973;SDS011;9621;48.690;9.466;2023-02-24T06:44:33;31.48;;;16.75;;
18973;SDS011;9621;48.690;9.466;2023-02-24T06:47:02;33.70;;;15.95;;
18973;SDS011;9621;48.690;9.466;2023-02-24T06:49:30;36.42;;;16.80;;
18973;SDS011;9621;48.690;9.466;2023-02-24T06:51:58;30.23;;;15.98;;
18973;SDS011;9621;48.690;9.466;2023-02-24T06:54:26;33.25;;;16.33;;
18973;SDS011;9621;48.690;9.466;2023-02-24T06:57:00;33.90;;;16.27;;
18973;SDS011;9621;48.690;9.466;2023-02-24T06:59:28;29.42;;;15.63;;
18973;SDS011;9621;48.690;9.466;2023-02-24T07:01:58;31.50;;;15.98;;
18973;SDS011;9621;48.690;9.466;2023-02-24T07:04:33;29.73;;;15.70;;
18973;SDS011;9621;48.690;9.466;2023-02-24T07:07:07;26.13;;;15.20;;
18973;SDS011;9621;48.690;9.466;2023-02-24T07:09:38;27.80;;;15.25;;
18973;SDS011;9621;48.690;9.466;2023-02-24T07:12:11;31.45;;;15.38;;
18973;SDS011;9621;48.690;9.466;2023-02-24T07:14:44;29.08;;;15.18;;
18973;SDS011;9621;48.690;9.466;2023-02-24T07:17:15;29.50;;;14.48;;
18973;SDS011;9621;48.690;9.466;2023-02-24T07:19:44;26.48;;;15.18;;
18973;SDS011;9621;48.690;9.466;2023-02-24T07:22:18;24.70;;;14.38;;
18973;SDS011;9621;48.690;9.466;2023-02-24T07:24:49;28.75;;;15.20;;
18973;SDS011;9621;48.690;9.466;2023-02-24T07:27:24;24.95;;;13.82;;
18973;SDS011;9621;48.690;9.466;2023-02-24T07:29:54;31.20;;;15.82;;
18973;SDS011;9621;48.690;9.466;2023-02-24T07:32:22;28.02;;;14.20;;
18973;SDS011;9621;48.690;9.466;2023-02-24T07:34:51;29.33;;;14.63;;
18973;SDS011;9621;48.690;9.466;2023-02-24T07:37:18;29.70;;;15.90;;
18973;SDS011;9621;48.690;9.466;2023-02-24T07:39:49;29.70;;;15.30;;
18973;SDS011;9621;48.690;9.466;2023-02-24T07:42:16;30.88;;;15.32;;
18973;SDS011;9621;48.690;9.466;2023-02-24T07:44:43;33.20;;;15.65;;
18973;SDS011;9621;48.690;9.466;2023-02-24T07:47:14;38.75;;;18.10;;
18973;SDS011;9621;48.690;9.466;2023-02-24T07:49:41;40.65;;;17.50;;
18973;SDS011;9621;48.690;9.466;2023-02-24T07:52:11;40.00;;;19.60;;
18973;SDS011;9621;48.690;9.466;2023-02-24T07:54:38;47.25;;;18.98;;
18973;SDS011;9621;48.690;9.466;2023-02-24T07:57:06;46.15;;;18.38;;
18973;SDS011;9621;48.690;9.466;2023-02-24T07:59:37;46.25;;;18.17;;
18973;SDS011;9621;48.690;9.466;2023-02-24T08:02:04;43.17;;;18.17;;
18973;SDS011;9621;48.690;9.466;2023-02-24T08:04:34;37.75;;;16.35;;
18973;SDS011;9621;48.690;9.466;2023-02-24T08:07:05;41.50;;;18.83;;
18973;SDS011;9621;48.690;9.466;2023-02-24T08:09:40;46.22;;;19.88;;
18973;SDS011;9621;48.690;9.466;2023-02-24T08:12:33;51.47;;;20.08;;
18973;SDS011;9621;48.690;9.466;2023-02-24T08:15:00;55.33;;;21.70;;
18973;SDS011;9621;48.690;9.466;2023-02-24T08:17:42;48.55;;;20.50;;
18973;SDS011;9621;48.690;9.466;2023-02-24T08:20:13;45.40;;;20.17;;
18973;SDS011;9621;48.690;9.466;2023-02-24T08:22:48;48.47;;;19.98;;
18973;SDS011;9621;48.690;9.466;2023-02-24T08:25:20;42.25;;;20.58;;
18973;SDS011;9621;48.690;9.466;2023-02-24T08:27:49;43.83;;;20.85;;
18973;SDS011;9621;48.690;9.466;2023-02-24T08:30:21;47.97;;;20.73;;
18973;SDS011;9621;48.690;9.466;2023-02-24T08:32:49;46.65;;;21.08;;
18973;SDS011;9621;48.690;9.466;2023-02-24T08:35:22;45.95;;;21.50;;
18973;SDS011;9621;48.690;9.466;2023-02-24T08:37:56;44.40;;;20.55;;
18973;SDS011;9621;48.690;9.466;2023-02-24T08:40:30;45.40;;;21.92;;
18973;SDS011;9621;48.690;9.466;2023-02-24T08:43:23;43.60;;;20.95;;
18973;SDS011;9621;48.690;9.466;2023-02-24T08:46:01;48.88;;;22.02;;
18973;SDS011;9621;48.690;9.466;2023-02-24T08:48:38;47.38;;;21.55;;
18973;SDS011;9621;48.690;9.466;2023-02-24T08:51:08;43.13;;;22.10;;
18973;SDS011;9621;48.690;9.466;2023-02-24T08:53:39;42.00;;;20.83;;
18973;SDS011;9621;48.690;9.466;2023-02-24T08:56:08;46.83;;;21.60;;
18973;SDS011;9621;48.690;9.466;2023-02-24T08:58:38;49.33;;;21.52;;
18973;SDS011;9621;48.690;9.466;2023-02-24T09:01:11;42.40;;;20.58;;
18973;SDS011;9621;48.690;9.466;2023-02-24T09:03:48;41.65;;;19.42;;
18973;SDS011;9621;48.690;9.466;2023-02-24T09:06:16;41.15;;;19.23;;
18973;SDS011;9621;48.690;9.466;2023-02-24T09:08:49;39.10;;;18.85;;
18973;SDS011;9621;48.690;9.466;2023-02-24T09:11:42;38.78;;;18.52;;
18973;SDS011;9621;48.690;9.466;2023-02-24T09:14:14;35.75;;;18.13;;
18973;SDS011;9621;48.690;9.466;2023-02-24T09:16:42;38.72;;;19.40;;
18973;SDS011;9621;48.690;9.466;2023-02-24T09:19:26;36.53;;;18.02;;
18973;SDS011;9621;48.690;9.466;2023-02-24T09:22:21;35.17;;;17.40;;
18973;SDS011;9621;48.690;9.466;2023-02-24T09:25:06;38.67;;;17.60;;
18973;SDS011;9621;48.690;9.466;2023-02-24T09:27:50;36.38;;;17.70;;
18973;SDS011;9621;48.690;9.466;2023-02-24T09:30:19;38.38;;;17.30;;
18973;SDS011;9621;48.690;9.466;2023-02-24T09:33:04;36.67;;;17.42;;
18973;SDS011;9621;48.690;9.466;2023-02-24T09:35:42;35.92;;;17.20;;
18973;SDS011;9621;48.690;9.466;2023-02-24T09:38:17;32.80;;;16.65;;
18973;SDS011;9621;48.690;9.466;2023-02-24T09:41:00;37.55;;;17.67;;
18973;SDS011;9621;48.690;9.466;2023-02-24T09:43:32;36.47;;;17.83;;
18973;SDS011;9621;48.690;9.466;2023-02-24T09:46:09;38.97;;;16.60;;
18973;SDS011;9621;48.690;9.466;2023-02-24T09:48:41;35.45;;;18.45;;
18973;SDS011;9621;48.690;9.466;2023-02-24T09:51:15;34.65;;;16.05;;
18973;SDS011;9621;48.690;9.466;2023-02-24T09:53:53;34.42;;;15.82;;
18973;SDS011;9621;48.690;9.466;2023-02-24T09:56:27;32.83;;;16.25;;
18973;SDS011;9621;48.690;9.466;2023-02-24T09:59:03;42.45;;;17.45;;
18973;SDS011;9621;48.690;9.466;2023-02-24T10:01:49;34.67;;;15.93;;
18973;SDS011;9621;48.690;9.466;2023-02-24T10:07:32;40.15;;;16.55;;
18973;SDS011;9621;48.690;9.466;2023-02-24T10:10:05;34.20;;;16.15;;
18973;SDS011;9621;48.690;9.466;2023-02-24T10:12:45;36.65;;;15.20;;
18973;SDS011;9621;48.690;9.466;2023-02-24T10:15:20;29.75;;;14.65;;
18973;SDS011;9621;48.690;9.466;2023-02-24T10:18:19;33.95;;;13.77;;
18973;SDS011;9621;48.690;9.466;2023-02-24T10:20:53;26.30;;;14.70;;
18973;SDS011;9621;48.690;9.466;2023-02-24T10:23:27;23.60;;;12.85;;
18973;SDS011;9621;48.690;9.466;2023-02-24T10:26:01;24.80;;;13.07;;
18973;SDS011;9621;48.690;9.466;2023-02-24T10:28:47;29.48;;;12.73;;
18973;SDS011;9621;48.690;9.466;2023-02-24T10:31:20;29.50;;;13.13;;
18973;SDS011;9621;48.690;9.466;2023-02-24T10:33:55;30.08;;;12.60;;
18973;SDS011;9621;48.690;9.466;2023-02-24T10:36:25;28.42;;;13.10;;
18973;SDS011;9621;48.690;9.466;2023-02-24T10:38:59;27.67;;;13.02;;
18973;SDS011;9621;48.690;9.466;2023-02-24T10:41:39;22.48;;;11.65;;
18973;SDS011;9621;48.690;9.466;2023-02-24T10:44:10;24.73;;;12.57;;
18973;SDS011;9621;48.690;9.466;2023-02-24T10:46:41;19.17;;;10.93;;
18973;SDS011;9621;48.690;9.466;2023-02-24T10:49:09;24.48;;;11.55;;
18973;SDS011;9621;48.690;9.466;2023-02-24T10:51:40;23.10;;;11.07;;
18973;SDS011;9621;48.690;9.466;2023-02-24T10:54:10;24.90;;;11.13;;
18973;SDS011;9621;48.690;9.466;2023-02-24T10:57:01;19.17;;;11.20;;
18973;SDS011;9621;48.690;9.466;2023-02-24T10:59:47;23.52;;;10.85;;
18973;SDS011;9621;48.690;9.466;2023-02-24T11:02:36;23.30;;;10.68;;
18973;SDS011;9621;48.690;9.466;2023-02-24T11:05:21;27.75;;;11.07;;
18973;SDS011;9621;48.690;9.466;2023-02-24T11:08:10;20.80;;;10.43;;
18973;SDS011;9621;48.690;9.466;2023-02-24T11:11:00;19.75;;;10.95;;
18973;SDS011;9621;48.690;9.466;2023-02-24T11:13:32;21.15;;;10.98;;
18973;SDS011;9621;48.690;9.466;2023-02-24T11:16:19;26.40;;;10.73;;
18973;SDS011;9621;48.690;9.466;2023-02-24T11:19:05;22.20;;;10.95;;
18973;SDS011;9621;48.690;9.466;2023-02-24T11:21:32;21.67;;;10.63;;
18973;SDS011;9621;48.690;9.466;2023-02-24T11:24:00;18.73;;;10.57;;
18973;SDS011;9621;48.690;9.466;2023-02-24T11:26:31;21.00;;;11.15;;
18973;SDS011;9621;48.690;9.466;2023-02-24T11:29:02;21.15;;;10.45;;
18973;SDS011;9621;48.690;9.466;2023-02-24T11:31:52;23.13;;;10.90;;
18973;SDS011;9621;48.690;9.466;2023-02-24T11:34:36;17.63;;;9.48;;
18973;SDS011;9621;48.690;9.466;2023-02-24T11:37:15;22.38;;;10.52;;
18973;SDS011;9621;48.690;9.466;2023-02-24T11:39:57;17.23;;;9.57;;
18973;SDS011;9621;48.690;9.466;2023-02-24T11:42:29;23.27;;;10.63;;
18973;SDS011;9621;48.690;9.466;2023-02-24T11:45:02;22.80;;;11.13;;
18973;SDS011;9621;48.690;9.466;2023-02-24T11:47:39;23.77;;;10.05;;
18973;SDS011;9621;48.690;9.466;2023-02-24T11:50:21;22.65;;;10.05;;
18973;SDS011;9621;48.690;9.466;2023-02-24T11:52:55;22.38;;;10.57;;
18973;SDS011;9621;48.690;9.466;2023-02-24T11:55:27;16.83;;;9.55;;
18973;SDS011;9621;48.690;9.466;2023-02-24T11:57:59;22.60;;;10.48;;
18973;SDS011;9621;48.690;9.466;2023-02-24T12:00:31;20.83;;;10.35;;
18973;SDS011;9621;48.690;9.466;2023-02-24T12:03:03;20.48;;;10.25;;
18973;SDS011;9621;48.690;9.466;2023-02-24T12:05:40;21.02;;;10.43;;
18973;SDS011;9621;48.690;9.466;2023-02-24T12:08:10;21.23;;;9.73;;
18973;SDS011;9621;48.690;9.466;2023-02-24T12:10:45;20.70;;;9.93;;
18973;SDS011;9621;48.690;9.466;2023-02-24T12:13:17;27.88;;;10.65;;
18973;SDS011;9621;48.690;9.466;2023-02-24T12:15:49;20.67;;;10.88;;
18973;SDS011;9621;48.690;9.466;2023-02-24T12:18:23;19.73;;;10.57;;
18973;SDS011;9621;48.690;9.466;2023-02-24T12:20:54;19.10;;;9.98;;
18973;SDS011;9621;48.690;9.466;2023-02-24T12:23:27;24.38;;;9.70;;
18973;SDS011;9621;48.690;9.466;2023-02-24T12:26:01;25.58;;;10.18;;
18973;SDS011;9621;48.690;9.466;2023-02-24T12:28:39;21.88;;;9.75;;
18973;SDS011;9621;48.690;9.466;2023-02-24T12:31:20;22.23;;;10.63;;
18973;SDS011;9621;48.690;9.466;2023-02-24T12:33:57;19.95;;;9.82;;
18973;SDS011;9621;48.690;9.466;2023-02-24T12:36:37;32.30;;;10.77;;
18973;SDS011;9621;48.690;9.466;2023-02-24T12:39:24;19.80;;;9.27;;
18973;SDS011;9621;48.690;9.466;2023-02-24T12:42:06;25.30;;;10.10;;
18973;SDS011;9621;48.690;9.466;2023-02-24T12:44:42;20.75;;;10.25;;
18973;SDS011;9621;48.690;9.466;2023-02-24T12:47:15;19.60;;;10.80;;
18973;SDS011;9621;48.690;9.466;2023-02-24T12:52:47;26.83;;;11.00;;
18973;SDS011;9621;48.690;9.466;2023-02-24T12:55:25;24.05;;;10.38;;
18973;SDS011;9621;48.690;9.466;2023-02-24T12:58:05;20.52;;;9.73;;
18973;SDS011;9621;48.690;9.466;2023-02-24T13:00:41;20.67;;;10.73;;
18973;SDS011;9621;48.690;9.466;2023-02-24T13:03:23;21.23;;;10.90;;
18973;SDS011;9621;48.690;9.466;2023-02-24T13:06:00;27.88;;;10.90;;
18973;SDS011;9621;48.690;9.466;2023-02-24T13:08:37;23.65;;;10.77;;
18973;SDS011;9621;48.690;9.466;2023-02-24T13:11:12;20.05;;;10.23;;
18973;SDS011;9621;48.690;9.466;2023-02-24T13:13:46;22.65;;;10.18;;
18973;SDS011;9621;48.690;9.466;2023-02-24T13:16:26;27.65;;;11.10;;
18973;SDS011;9621;48.690;9.466;2023-02-24T13:19:03;23.65;;;9.95;;
18973;SDS011;9621;48.690;9.466;2023-02-24T13:21:31;21.42;;;10.63;;
18973;SDS011;9621;48.690;9.466;2023-02-24T13:24:01;23.85;;;11.77;;
18973;SDS011;9621;48.690;9.466;2023-02-24T13:26:29;23.27;;;10.20;;
18973;SDS011;9621;48.690;9.466;2023-02-24T13:28:58;20.17;;;9.25;;
18973;SDS011;9621;48.690;9.466;2023-02-24T13:31:26;22.88;;;10.60;;
18973;SDS011;9621;48.690;9.466;2023-02-24T13:34:11;19.95;;;10.00;;
18973;SDS011;9621;48.690;9.466;2023-02-24T13:36:44;17.73;;;9.15;;
18973;SDS011;9621;48.690;9.466;2023-02-24T13:39:21;20.90;;;8.65;;
18973;SDS011;9621;48.690;9.466;2023-02-24T13:41:59;19.73;;;8.80;;
18973;SDS011;9621;48.690;9.466;2023-02-24T13:44:28;19.48;;;9.07;;
18973;SDS011;9621;48.690;9.466;2023-02-24T13:47:04;26.27;;;9.15;;
18973;SDS011;9621;48.690;9.466;2023-02-24T13:50:05;20.85;;;8.80;;
18973;SDS011;9621;48.690;9.466;2023-02-24T13:52:46;18.30;;;8.32;;
18973;SDS011;9621;48.690;9.466;2023-02-24T13:55:33;20.20;;;9.48;;
18973;SDS011;9621;48.690;9.466;2023-02-24T14:01:27;20.67;;;8.70;;
18973;SDS011;9621;48.690;9.466;2023-02-24T14:04:02;23.00;;;8.75;;
18973;SDS011;9621;48.690;9.466;2023-02-24T14:06:31;17.65;;;8.27;;
18973;SDS011;9621;48.690;9.466;2023-02-24T14:08:59;19.17;;;7.95;;
18973;SDS011;9621;48.690;9.466;2023-02-24T14:11:31;16.83;;;8.32;;
18973;SDS011;9621;48.690;9.466;2023-02-24T14:14:02;20.52;;;8.52;;
18973;SDS011;9621;48.690;9.466;2023-02-24T14:16:31;20.17;;;9.02;;
18973;SDS011;9621;48.690;9.466;2023-02-24T14:19:05;20.17;;;8.68;;
18973;SDS011;9621;48.690;9.466;2023-02-24T14:21:44;19.52;;;8.13;;
18973;SDS011;9621;48.690;9.466;2023-02-24T14:24:13;19.52;;;8.27;;
18973;SDS011;9621;48.690;9.466;2023-02-24T14:26:43;17.23;;;9.02;;
18973;SDS011;9621;48.690;9.466;2023-02-24T14:29:12;25.00;;;8.93;;
18973;SDS011;9621;48.690;9.466;2023-02-24T14:31:45;23.60;;;8.50;;
18973;SDS011;9621;48.690;9.466;2023-02-24T14:34:15;23.58;;;8.15;;
18973;SDS011;9621;48.690;9.466;2023-02-24T14:36:45;24.52;;;8.93;;
18973;SDS011;9621;48.690;9.466;2023-02-24T14:39:13;13.30;;;7.50;;
18973;SDS011;9621;48.690;9.466;2023-02-24T14:41:44;25.38;;;8.55;;
18973;SDS011;9621;48.690;9.466;2023-02-24T14:44:16;20.33;;;8.43;;
18973;SDS011;9621;48.690;9.466;2023-02-24T14:46:45;17.77;;;8.48;;
18973;SDS011;9621;48.690;9.466;2023-02-24T14:49:16;23.48;;;8.15;;
18973;SDS011;9621;48.690;9.466;2023-02-24T14:51:45;18.50;;;8.40;;
18973;SDS011;9621;48.690;9.466;2023-02-24T14:54:15;19.33;;;10.40;;
18973;SDS011;9621;48.690;9.466;2023-02-24T14:56:51;22.90;;;10.23;;
18973;SDS011;9621;48.690;9.466;2023-02-24T14:59:19;29.75;;;13.02;;
18973;SDS011;9621;48.690;9.466;2023-02-24T15:01:53;20.75;;;10.65;;
18973;SDS011;9621;48.690;9.466;2023-02-24T15:04:25;21.08;;;10.43;;
18973;SDS011;9621;48.690;9.466;2023-02-24T15:06:59;29.75;;;15.02;;
18973;SDS011;9621;48.690;9.466;2023-02-24T15:09:32;31.95;;;14.77;;
18973;SDS011;9621;48.690;9.466;2023-02-24T15:12:10;31.80;;;14.00;;
18973;SDS011;9621;48.690;9.466;2023-02-24T15:14:46;26.83;;;12.80;;
18973;SDS011;9621;48.690;9.466;2023-02-24T15:17:17;28.30;;;13.13;;
18973;SDS011;9621;48.690;9.466;2023-02-24T15:19:46;30.92;;;13.18;;
18973;SDS011;9621;48.690;9.466;2023-02-24T15:22:19;37.92;;;15.65;;
18973;SDS011;9621;48.690;9.466;2023-02-24T15:24:48;42.30;;;18.45;;
18973;SDS011;9621;48.690;9.466;2023-02-24T15:27:21;51.85;;;20.23;;